sensor_id;sensor_type;location;lat;lon;timestamp;pressure;altitude;pressure_sealevel;temperature;humidity
59487;BME280;45298;54.918;73.504;2023-04-04T00:01:09;101499.34;;;-2.94;72.85
59487;BME280;45298;54.918;73.504;2023-04-04T00:03:38;101585.00;;;-2.47;72.88
59487;BME280;45298;54.918;73.504;2023-04-04T00:06:07;101590.13;;;-2.50;72.71
59487;BME280;45298;54.918;73.504;2023-04-04T00:08:38;101568.31;;;-2.60;73.08
59487;BME280;45298;54.918;73.504;2023-04-04T00:11:07;101595.38;;;-2.47;73.75
59487;BME280;45298;54.918;73.504;2023-04-04T00:13:36;101589.09;;;-2.58;72.87
59487;BME280;45298;54.918;73.504;2023-04-04T00:16:06;101563.72;;;-2.75;73.35
59487;BME280;45298;54.918;73.504;2023-04-04T00:18:35;101582.94;;;-2.65;73.68
59487;BME280;45298;54.918;73.504;2023-04-04T00:21:04;101606.50;;;-2.54;73.50
59487;BME280;45298;54.918;73.504;2023-04-04T00:23:33;101591.56;;;-2.66;73.90
59487;BME280;45298;54.918;73.504;2023-04-04T00:26:03;101608.16;;;-2.59;73.21
59487;BME280;45298;54.918;73.504;2023-04-04T00:28:32;101597.47;;;-2.76;72.88
59487;BME280;45298;54.918;73.504;2023-04-04T00:31:01;101614.69;;;-2.81;73.34
59487;BME280;45298;54.918;73.504;2023-04-04T00:33:30;101518.31;;;-3.44;73.52
59487;BME280;45298;54.918;73.504;2023-04-04T00:35:59;101615.44;;;-2.87;74.14
59487;BME280;45298;54.918;73.504;2023-04-04T00:38:29;101606.56;;;-3.00;74.46
59487;BME280;45298;54.918;73.504;2023-04-04T00:40:58;101619.84;;;-2.83;74.58
59487;BME280;45298;54.918;73.504;2023-04-04T00:43:27;101596.31;;;-2.92;74.25
59487;BME280;45298;54.918;73.504;2023-04-04T00:45:56;101592.94;;;-2.88;74.11
59487;BME280;45298;54.918;73.504;2023-04-04T00:48:25;101609.56;;;-2.77;74.01
59487;BME280;45298;54.918;73.504;2023-04-04T00:50:54;101614.81;;;-2.74;74.34
59487;BME280;45298;54.918;73.504;2023-04-04T00:53:24;101621.84;;;-2.69;74.09
59487;BME280;45298;54.918;73.504;2023-04-04T00:55:53;101598.28;;;-2.79;74.36
59487;BME280;45298;54.918;73.504;2023-04-04T00:58:24;101615.06;;;-2.60;74.57
59487;BME280;45298;54.918;73.504;2023-04-04T01:00:54;101611.53;;;-2.63;74.29
59487;BME280;45298;54.918;73.504;2023-04-04T01:03:25;101622.88;;;-2.58;74.78
59487;BME280;45298;54.918;73.504;2023-04-04T01:05:56;101609.91;;;-2.58;74.49
59487;BME280;45298;54.918;73.504;2023-04-04T01:08:27;101611.66;;;-2.57;74.95
59487;BME280;45298;54.918;73.504;2023-04-04T01:10:57;101605.59;;;-2.58;74.96
59487;BME280;45298;54.918;73.504;2023-04-04T01:13:27;101577.56;;;-2.76;74.93
59487;BME280;45298;54.918;73.504;2023-04-04T01:15:57;101591.56;;;-2.67;74.84
59487;BME280;45298;54.918;73.504;2023-04-04T01:18:27;101611.78;;;-2.49;74.92
59487;BME280;45298;54.918;73.504;2023-04-04T01:21:00;101603.91;;;-2.54;74.75
59487;BME280;45298;54.918;73.504;2023-04-04T01:23:48;101628.34;;;-2.43;75.60
59487;BME280;45298;54.918;73.504;2023-04-04T01:26:21;101620.53;;;-2.44;75.90
59487;BME280;45298;54.918;73.504;2023-04-04T01:28:58;101595.22;;;-2.56;75.66
59487;BME280;45298;54.918;73.504;2023-04-04T01:31:35;101625.84;;;-2.36;76.05
59487;BME280;45298;54.918;73.504;2023-04-04T01:34:15;101602.47;;;-2.36;75.68
59487;BME280;45298;54.918;73.504;2023-04-04T01:37:06;101626.88;;;-2.26;76.30
59487;BME280;45298;54.918;73.504;2023-04-04T01:39:47;101585.06;;;-2.40;76.21
59487;BME280;45298;54.918;73.504;2023-04-04T01:42:17;101619.38;;;-2.09;76.30
59487;BME280;45298;54.918;73.504;2023-04-04T01:44:56;101604.56;;;-2.14;76.42
59487;BME280;45298;54.918;73.504;2023-04-04T01:47:40;101617.00;;;-1.94;76.23
59487;BME280;45298;54.918;73.504;2023-04-04T01:50:14;101620.59;;;-1.84;76.49
59487;BME280;45298;54.918;73.504;2023-04-04T01:52:44;101581.44;;;-1.95;76.79
59487;BME280;45298;54.918;73.504;2023-04-04T01:55:13;101599.03;;;-1.75;76.23
59487;BME280;45298;54.918;73.504;2023-04-04T01:57:42;101574.75;;;-1.77;76.64
59487;BME280;45298;54.918;73.504;2023-04-04T02:00:11;101619.53;;;-1.32;76.95
59487;BME280;45298;54.918;73.504;2023-04-04T02:02:43;101485.56;;;-0.74;74.61
59487;BME280;45298;54.918;73.504;2023-04-04T02:05:13;101608.34;;;1.59;71.24
59487;BME280;45298;54.918;73.504;2023-04-04T02:07:48;101615.78;;;3.22;67.75
59487;BME280;45298;54.918;73.504;2023-04-04T02:10:27;101610.25;;;4.51;63.93
59487;BME280;45298;54.918;73.504;2023-04-04T02:12:57;101622.03;;;5.54;61.34
59487;BME280;45298;54.918;73.504;2023-04-04T02:15:27;101606.63;;;6.34;59.13
59487;BME280;45298;54.918;73.504;2023-04-04T02:17:57;101609.38;;;7.13;56.96
59487;BME280;45298;54.918;73.504;2023-04-04T02:20:28;101615.66;;;7.82;54.61
59487;BME280;45298;54.918;73.504;2023-04-04T02:22:57;101590.06;;;8.17;52.00
59487;BME280;45298;54.918;73.504;2023-04-04T02:25:26;101589.72;;;8.63;51.15
59487;BME280;45298;54.918;73.504;2023-04-04T02:27:56;101617.00;;;9.25;49.76
59487;BME280;45298;54.918;73.504;2023-04-04T02:30:27;101603.56;;;9.58;48.44
59487;BME280;45298;54.918;73.504;2023-04-04T02:32:57;101583.22;;;9.86;47.91
59487;BME280;45298;54.918;73.504;2023-04-04T02:35:28;101600.22;;;10.31;46.98
59487;BME280;45298;54.918;73.504;2023-04-04T02:37:57;101620.25;;;10.65;46.23
59487;BME280;45298;54.918;73.504;2023-04-04T02:40:36;101544.22;;;10.40;45.27
59487;BME280;45298;54.918;73.504;2023-04-04T02:43:09;101586.31;;;10.73;44.18
59487;BME280;45298;54.918;73.504;2023-04-04T02:45:38;101619.56;;;10.83;44.56
59487;BME280;45298;54.918;73.504;2023-04-04T02:48:18;101615.41;;;10.76;43.80
59487;BME280;45298;54.918;73.504;2023-04-04T02:50:50;101604.44;;;10.85;43.69
59487;BME280;45298;54.918;73.504;2023-04-04T02:53:19;101605.31;;;10.86;43.64
59487;BME280;45298;54.918;73.504;2023-04-04T02:55:52;101615.06;;;10.85;42.91
59487;BME280;45298;54.918;73.504;2023-04-04T02:58:21;101636.41;;;10.82;43.61
59487;BME280;45298;54.918;73.504;2023-04-04T03:00:54;101572.03;;;10.28;43.65
59487;BME280;45298;54.918;73.504;2023-04-04T03:03:28;101621.84;;;10.45;44.03
59487;BME280;45298;54.918;73.504;2023-04-04T03:05:58;101620.34;;;10.11;43.46
59487;BME280;45298;54.918;73.504;2023-04-04T03:08:28;101586.03;;;9.54;43.62
59487;BME280;45298;54.918;73.504;2023-04-04T03:10:58;101608.41;;;9.45;43.72
59487;BME280;45298;54.918;73.504;2023-04-04T03:13:28;101619.81;;;9.19;44.14
59487;BME280;45298;54.918;73.504;2023-04-04T03:16:02;101590.69;;;8.90;45.43
59487;BME280;45298;54.918;73.504;2023-04-04T03:18:43;101609.28;;;8.89;45.50
59487;BME280;45298;54.918;73.504;2023-04-04T03:21:12;101607.38;;;8.92;44.64
59487;BME280;45298;54.918;73.504;2023-04-04T03:23:41;101595.84;;;8.65;45.50
59487;BME280;45298;54.918;73.504;2023-04-04T03:26:11;101502.66;;;7.94;46.04
59487;BME280;45298;54.918;73.504;2023-04-04T03:28:41;101527.34;;;7.93;46.55
59487;BME280;45298;54.918;73.504;2023-04-04T03:31:11;101613.78;;;8.21;46.67
59487;BME280;45298;54.918;73.504;2023-04-04T03:33:42;101615.44;;;8.25;46.98
59487;BME280;45298;54.918;73.504;2023-04-04T03:36:12;101590.16;;;8.14;46.73
59487;BME280;45298;54.918;73.504;2023-04-04T03:38:41;101585.69;;;8.16;47.60
59487;BME280;45298;54.918;73.504;2023-04-04T03:41:10;101604.66;;;8.32;46.85
59487;BME280;45298;54.918;73.504;2023-04-04T03:43:40;101626.41;;;8.42;47.35
59487;BME280;45298;54.918;73.504;2023-04-04T03:46:09;101602.16;;;8.28;47.32
59487;BME280;45298;54.918;73.504;2023-04-04T03:48:39;101595.97;;;8.27;48.32
59487;BME280;45298;54.918;73.504;2023-04-04T03:51:09;101613.63;;;8.60;48.29
59487;BME280;45298;54.918;73.504;2023-04-04T03:53:38;101589.34;;;8.75;48.10
59487;BME280;45298;54.918;73.504;2023-04-04T03:56:10;101581.41;;;8.75;46.81
59487;BME280;45298;54.918;73.504;2023-04-04T03:58:40;101602.78;;;8.99;46.95
59487;BME280;45298;54.918;73.504;2023-04-04T04:01:14;101566.69;;;8.67;47.47
59487;BME280;45298;54.918;73.504;2023-04-04T04:03:43;101610.53;;;9.05;47.35
59487;BME280;45298;54.918;73.504;2023-04-04T04:06:12;101633.06;;;9.19;47.24
59487;BME280;45298;54.918;73.504;2023-04-04T04:08:41;101600.63;;;9.12;46.61
59487;BME280;45298;54.918;73.504;2023-04-04T04:11:10;101595.81;;;8.97;46.88
59487;BME280;45298;54.918;73.504;2023-04-04T04:13:39;101615.84;;;9.05;46.76
59487;BME280;45298;54.918;73.504;2023-04-04T04:16:08;101595.22;;;8.87;46.16
59487;BME280;45298;54.918;73.504;2023-04-04T04:18:37;101619.25;;;9.09;47.78
59487;BME280;45298;54.918;73.504;2023-04-04T04:21:12;101586.88;;;9.01;47.61
59487;BME280;45298;54.918;73.504;2023-04-04T04:23:42;101610.47;;;9.35;46.79
59487;BME280;45298;54.918;73.504;2023-04-04T04:26:11;101622.22;;;9.55;46.29
59487;BME280;45298;54.918;73.504;2023-04-04T04:28:40;101604.28;;;9.63;46.91
59487;BME280;45298;54.918;73.504;2023-04-04T04:31:15;101604.88;;;9.72;46.58
59487;BME280;45298;54.918;73.504;2023-04-04T04:33:48;101608.16;;;9.80;45.63
59487;BME280;45298;54.918;73.504;2023-04-04T04:36:19;101619.13;;;9.96;46.07
59487;BME280;45298;54.918;73.504;2023-04-04T04:39:08;101605.41;;;9.83;45.22
59487;BME280;45298;54.918;73.504;2023-04-04T04:41:43;101622.78;;;9.92;45.65
59487;BME280;45298;54.918;73.504;2023-04-04T04:44:12;101600.84;;;9.88;45.60
59487;BME280;45298;54.918;73.504;2023-04-04T04:46:41;101615.38;;;10.02;45.42
59487;BME280;45298;54.918;73.504;2023-04-04T04:49:14;101598.66;;;10.00;45.27
59487;BME280;45298;54.918;73.504;2023-04-04T04:51:45;101597.53;;;10.07;45.52
59487;BME280;45298;54.918;73.504;2023-04-04T04:54:15;101618.25;;;10.21;45.66
59487;BME280;45298;54.918;73.504;2023-04-04T04:56:46;101594.78;;;10.10;45.90
59487;BME280;45298;54.918;73.504;2023-04-04T04:59:15;101611.00;;;10.26;46.06
59487;BME280;45298;54.918;73.504;2023-04-04T05:01:47;101599.09;;;10.12;45.69
59487;BME280;45298;54.918;73.504;2023-04-04T05:04:19;101596.38;;;10.14;45.98
59487;BME280;45298;54.918;73.504;2023-04-04T05:07:02;101612.56;;;10.32;45.36
59487;BME280;45298;54.918;73.504;2023-04-04T05:09:31;101603.53;;;10.37;45.47
59487;BME280;45298;54.918;73.504;2023-04-04T05:12:01;101586.66;;;10.40;45.84
59487;BME280;45298;54.918;73.504;2023-04-04T05:14:38;101594.41;;;10.46;46.33
59487;BME280;45298;54.918;73.504;2023-04-04T05:17:07;101593.25;;;10.53;45.63
59487;BME280;45298;54.918;73.504;2023-04-04T05:19:36;101606.94;;;10.66;44.12
59487;BME280;45298;54.918;73.504;2023-04-04T05:22:05;101527.75;;;10.30;45.58
59487;BME280;45298;54.918;73.504;2023-04-04T05:24:40;101579.13;;;10.77;44.46
59487;BME280;45298;54.918;73.504;2023-04-04T05:27:14;101582.34;;;10.85;43.84
59487;BME280;45298;54.918;73.504;2023-04-04T05:29:47;101582.16;;;10.89;44.70
59487;BME280;45298;54.918;73.504;2023-04-04T05:32:16;101573.63;;;10.81;44.49
59487;BME280;45298;54.918;73.504;2023-04-04T05:34:53;101563.88;;;10.82;44.72
59487;BME280;45298;54.918;73.504;2023-04-04T05:37:22;101568.88;;;10.89;44.36
59487;BME280;45298;54.918;73.504;2023-04-04T05:39:51;101566.31;;;11.10;44.82
59487;BME280;45298;54.918;73.504;2023-04-04T05:42:20;101571.31;;;11.18;43.77
59487;BME280;45298;54.918;73.504;2023-04-04T05:44:53;101592.63;;;11.39;44.61
59487;BME280;45298;54.918;73.504;2023-04-04T05:47:23;101541.31;;;11.16;44.73
59487;BME280;45298;54.918;73.504;2023-04-04T05:49:52;101581.50;;;11.51;43.53
59487;BME280;45298;54.918;73.504;2023-04-04T05:52:21;101542.09;;;11.40;45.21
59487;BME280;45298;54.918;73.504;2023-04-04T05:54:50;101582.47;;;11.71;44.35
59487;BME280;45298;54.918;73.504;2023-04-04T05:57:26;101572.69;;;11.71;44.15
59487;BME280;45298;54.918;73.504;2023-04-04T05:59:57;101568.25;;;11.72;44.31
59487;BME280;45298;54.918;73.504;2023-04-04T06:02:26;101556.72;;;11.71;42.85
59487;BME280;45298;54.918;73.504;2023-04-04T06:05:01;101561.13;;;11.72;44.21
59487;BME280;45298;54.918;73.504;2023-04-04T06:07:36;101577.75;;;11.98;42.62
59487;BME280;45298;54.918;73.504;2023-04-04T06:10:07;101572.38;;;12.00;44.10
59487;BME280;45298;54.918;73.504;2023-04-04T06:12:37;101547.31;;;11.85;44.65
59487;BME280;45298;54.918;73.504;2023-04-04T06:15:09;101574.06;;;12.02;44.20
59487;BME280;45298;54.918;73.504;2023-04-04T06:17:41;101492.34;;;11.64;43.61
59487;BME280;45298;54.918;73.504;2023-04-04T06:20:10;101565.41;;;12.18;43.26
59487;BME280;45298;54.918;73.504;2023-04-04T06:22:40;101581.75;;;12.29;42.43
59487;BME280;45298;54.918;73.504;2023-04-04T06:25:12;101564.97;;;12.27;42.06
59487;BME280;45298;54.918;73.504;2023-04-04T06:27:42;101562.59;;;12.42;41.89
59487;BME280;45298;54.918;73.504;2023-04-04T06:30:11;101579.72;;;12.55;41.87
59487;BME280;45298;54.918;73.504;2023-04-04T06:32:43;101580.88;;;12.49;41.28
59487;BME280;45298;54.918;73.504;2023-04-04T06:35:17;101572.78;;;12.51;41.80
59487;BME280;45298;54.918;73.504;2023-04-04T06:38:00;101560.22;;;12.54;42.26
59487;BME280;45298;54.918;73.504;2023-04-04T06:40:29;101551.28;;;12.55;40.63
59487;BME280;45298;54.918;73.504;2023-04-04T06:42:58;101563.31;;;12.64;40.47
59487;BME280;45298;54.918;73.504;2023-04-04T06:45:33;101586.03;;;12.72;39.81
59487;BME280;45298;54.918;73.504;2023-04-04T06:48:03;101573.88;;;12.85;40.54
59487;BME280;45298;54.918;73.504;2023-04-04T06:50:33;101550.78;;;12.85;40.27
59487;BME280;45298;54.918;73.504;2023-04-04T06:53:04;101567.25;;;13.13;40.83
59487;BME280;45298;54.918;73.504;2023-04-04T06:55:34;101499.31;;;12.85;40.11
59487;BME280;45298;54.918;73.504;2023-04-04T06:58:05;101561.94;;;13.30;39.33
59487;BME280;45298;54.918;73.504;2023-04-04T07:00:33;101575.56;;;13.43;36.93
59487;BME280;45298;54.918;73.504;2023-04-04T07:03:03;101571.75;;;13.30;38.13
59487;BME280;45298;54.918;73.504;2023-04-04T07:05:32;101508.69;;;12.94;37.06
59487;BME280;45298;54.918;73.504;2023-04-04T07:08:01;101548.56;;;13.32;38.55
59487;BME280;45298;54.918;73.504;2023-04-04T07:10:30;101566.25;;;13.52;37.56
59487;BME280;45298;54.918;73.504;2023-04-04T07:12:59;101566.09;;;13.55;37.56
59487;BME280;45298;54.918;73.504;2023-04-04T07:15:28;101568.41;;;13.44;37.48
59487;BME280;45298;54.918;73.504;2023-04-04T07:17:59;101572.66;;;13.48;37.18
59487;BME280;45298;54.918;73.504;2023-04-04T07:20:29;101586.41;;;13.58;37.99
59487;BME280;45298;54.918;73.504;2023-04-04T07:22:57;101579.75;;;13.67;38.54
59487;BME280;45298;54.918;73.504;2023-04-04T07:25:26;101560.91;;;13.52;38.75
59487;BME280;45298;54.918;73.504;2023-04-04T07:27:56;101572.16;;;13.40;38.47
59487;BME280;45298;54.918;73.504;2023-04-04T07:30:39;101558.56;;;13.46;38.17
59487;BME280;45298;54.918;73.504;2023-04-04T07:33:09;101529.97;;;13.30;39.33
59487;BME280;45298;54.918;73.504;2023-04-04T07:35:38;101583.19;;;13.69;39.48
59487;BME280;45298;54.918;73.504;2023-04-04T07:38:07;101555.97;;;13.62;38.89
59487;BME280;45298;54.918;73.504;2023-04-04T07:40:36;101558.94;;;13.56;38.71
59487;BME280;45298;54.918;73.504;2023-04-04T07:43:05;101546.66;;;13.53;39.92
59487;BME280;45298;54.918;73.504;2023-04-04T07:45:34;101573.25;;;13.72;39.69
59487;BME280;45298;54.918;73.504;2023-04-04T07:48:06;101578.88;;;13.84;39.63
59487;BME280;45298;54.918;73.504;2023-04-04T07:50:35;101558.09;;;13.73;40.04
59487;BME280;45298;54.918;73.504;2023-04-04T07:53:04;101557.16;;;13.74;39.63
59487;BME280;45298;54.918;73.504;2023-04-04T07:55:34;101560.78;;;13.73;38.86
59487;BME280;45298;54.918;73.504;2023-04-04T07:58:02;101555.69;;;13.68;40.41
59487;BME280;45298;54.918;73.504;2023-04-04T08:00:31;101577.25;;;13.81;40.00
59487;BME280;45298;54.918;73.504;2023-04-04T08:03:00;101555.19;;;13.60;39.26
59487;BME280;45298;54.918;73.504;2023-04-04T08:05:30;101550.75;;;13.60;38.98
59487;BME280;45298;54.918;73.504;2023-04-04T08:07:59;101549.41;;;13.69;39.33
59487;BME280;45298;54.918;73.504;2023-04-04T08:10:28;101557.94;;;13.76;38.73
59487;BME280;45298;54.918;73.504;2023-04-04T08:12:56;101531.28;;;13.58;38.92
59487;BME280;45298;54.918;73.504;2023-04-04T08:15:26;101551.84;;;13.74;38.78
59487;BME280;45298;54.918;73.504;2023-04-04T08:17:55;101548.22;;;13.75;39.22
59487;BME280;45298;54.918;73.504;2023-04-04T08:20:24;101559.97;;;13.88;38.66
59487;BME280;45298;54.918;73.504;2023-04-04T08:22:53;101561.44;;;13.94;38.09
59487;BME280;45298;54.918;73.504;2023-04-04T08:25:22;101560.59;;;13.94;37.78
59487;BME280;45298;54.918;73.504;2023-04-04T08:27:51;101553.84;;;13.86;37.61
59487;BME280;45298;54.918;73.504;2023-04-04T08:30:20;101538.34;;;13.77;37.51
59487;BME280;45298;54.918;73.504;2023-04-04T08:32:48;101531.44;;;13.73;36.07
59487;BME280;45298;54.918;73.504;2023-04-04T08:35:17;101539.91;;;13.81;37.19
59487;BME280;45298;54.918;73.504;2023-04-04T08:37:46;101529.09;;;13.67;35.79
59487;BME280;45298;54.918;73.504;2023-04-04T08:40:15;101528.00;;;13.71;35.68
59487;BME280;45298;54.918;73.504;2023-04-04T08:42:45;101561.25;;;13.81;36.37
59487;BME280;45298;54.918;73.504;2023-04-04T08:45:17;101539.69;;;13.68;35.95
59487;BME280;45298;54.918;73.504;2023-04-04T08:47:47;101558.09;;;13.73;35.51
59487;BME280;45298;54.918;73.504;2023-04-04T08:50:20;101457.72;;;13.19;36.80
59487;BME280;45298;54.918;73.504;2023-04-04T08:52:51;101541.25;;;13.72;36.36
59487;BME280;45298;54.918;73.504;2023-04-04T08:55:20;101511.69;;;13.59;37.01
59487;BME280;45298;54.918;73.504;2023-04-04T08:57:50;101511.06;;;13.54;37.79
59487;BME280;45298;54.918;73.504;2023-04-04T09:00:19;101541.88;;;13.78;38.15
59487;BME280;45298;54.918;73.504;2023-04-04T09:03:08;101550.41;;;13.84;38.44
59487;BME280;45298;54.918;73.504;2023-04-04T09:05:37;101529.88;;;13.69;39.10
59487;BME280;45298;54.918;73.504;2023-04-04T09:08:06;101540.38;;;13.72;36.80
59487;BME280;45298;54.918;73.504;2023-04-04T09:10:37;101511.84;;;13.56;37.36
59487;BME280;45298;54.918;73.504;2023-04-04T09:13:09;101530.19;;;13.63;36.74
59487;BME280;45298;54.918;73.504;2023-04-04T09:15:50;101519.06;;;13.54;36.42
59487;BME280;45298;54.918;73.504;2023-04-04T09:18:21;101529.72;;;13.54;35.98
59487;BME280;45298;54.918;73.504;2023-04-04T09:20:50;101517.78;;;13.44;36.67
59487;BME280;45298;54.918;73.504;2023-04-04T09:23:20;101528.28;;;13.47;37.24
59487;BME280;45298;54.918;73.504;2023-04-04T09:25:54;101473.22;;;13.11;37.21
59487;BME280;45298;54.918;73.504;2023-04-04T09:28:26;101538.16;;;13.45;35.50
59487;BME280;45298;54.918;73.504;2023-04-04T09:30:55;101497.97;;;13.13;36.32
59487;BME280;45298;54.918;73.504;2023-04-04T09:33:27;101511.63;;;13.24;36.44
59487;BME280;45298;54.918;73.504;2023-04-04T09:36:06;101513.53;;;13.22;36.07
59487;BME280;45298;54.918;73.504;2023-04-04T09:38:40;101489.34;;;13.08;37.32
59487;BME280;45298;54.918;73.504;2023-04-04T09:41:17;101499.72;;;13.14;37.13
59487;BME280;45298;54.918;73.504;2023-04-04T09:43:46;101533.72;;;13.26;37.10
59487;BME280;45298;54.918;73.504;2023-04-04T09:46:18;101507.78;;;13.12;37.11
59487;BME280;45298;54.918;73.504;2023-04-04T09:48:49;101538.81;;;13.13;36.65
59487;BME280;45298;54.918;73.504;2023-04-04T09:51:21;101538.41;;;13.04;36.84
59487;BME280;45298;54.918;73.504;2023-04-04T09:53:50;101542.16;;;12.99;37.37
59487;BME280;45298;54.918;73.504;2023-04-04T09:56:19;101511.09;;;12.81;36.65
59487;BME280;45298;54.918;73.504;2023-04-04T09:58:49;101529.34;;;12.89;36.49
59487;BME280;45298;54.918;73.504;2023-04-04T10:01:32;101517.03;;;12.86;36.19
59487;BME280;45298;54.918;73.504;2023-04-04T10:04:02;101507.47;;;12.82;37.25
59487;BME280;45298;54.918;73.504;2023-04-04T10:06:35;101532.66;;;12.94;37.29
59487;BME280;45298;54.918;73.504;2023-04-04T10:09:06;101516.41;;;12.81;36.92
59487;BME280;45298;54.918;73.504;2023-04-04T10:11:36;101512.31;;;12.74;36.39
59487;BME280;45298;54.918;73.504;2023-04-04T10:14:08;101506.41;;;12.67;35.87
59487;BME280;45298;54.918;73.504;2023-04-04T10:16:43;101508.97;;;12.68;34.80
59487;BME280;45298;54.918;73.504;2023-04-04T10:19:14;101516.41;;;12.62;34.30
59487;BME280;45298;54.918;73.504;2023-04-04T10:21:46;101539.50;;;12.61;34.10
59487;BME280;45298;54.918;73.504;2023-04-04T10:24:16;101536.91;;;12.60;34.61
59487;BME280;45298;54.918;73.504;2023-04-04T10:26:46;101547.19;;;12.67;33.67
59487;BME280;45298;54.918;73.504;2023-04-04T10:29:15;101457.28;;;12.17;33.87
59487;BME280;45298;54.918;73.504;2023-04-04T10:31:45;101527.31;;;12.55;34.12
59487;BME280;45298;54.918;73.504;2023-04-04T10:37:12;101473.78;;;12.25;34.46
59487;BME280;45298;54.918;73.504;2023-04-04T10:39:52;101543.94;;;12.61;34.60
59487;BME280;45298;54.918;73.504;2023-04-04T10:42:25;101531.53;;;12.61;33.89
59487;BME280;45298;54.918;73.504;2023-04-04T10:45:00;101543.09;;;12.60;32.53
59487;BME280;45298;54.918;73.504;2023-04-04T10:47:46;101530.22;;;12.51;32.81
59487;BME280;45298;54.918;73.504;2023-04-04T10:50:16;101520.94;;;12.41;32.71
59487;BME280;45298;54.918;73.504;2023-04-04T10:52:48;101490.41;;;12.09;32.69
59487;BME280;45298;54.918;73.504;2023-04-04T10:55:19;101544.31;;;12.34;32.56
59487;BME280;45298;54.918;73.504;2023-04-04T10:57:49;101516.66;;;12.17;33.97
59487;BME280;45298;54.918;73.504;2023-04-04T11:00:21;101517.66;;;12.15;33.60
59487;BME280;45298;54.918;73.504;2023-04-04T11:08:01;101469.28;;;11.86;32.05
59487;BME280;45298;54.918;73.504;2023-04-04T11:10:42;101540.19;;;12.27;33.54
59487;BME280;45298;54.918;73.504;2023-04-04T11:21:15;101531.91;;;12.14;35.12
59487;BME280;45298;54.918;73.504;2023-04-04T11:29:02;101535.63;;;12.09;36.26
59487;BME280;45298;54.918;73.504;2023-04-04T11:31:33;101500.06;;;11.91;36.63
59487;BME280;45298;54.918;73.504;2023-04-04T11:34:09;101530.72;;;12.00;36.16
59487;BME280;45298;54.918;73.504;2023-04-04T11:39:26;101531.84;;;11.94;36.59
59487;BME280;45298;54.918;73.504;2023-04-04T11:42:11;101509.56;;;11.76;36.33
59487;BME280;45298;54.918;73.504;2023-04-04T11:45:03;101523.44;;;11.83;37.40
59487;BME280;45298;54.918;73.504;2023-04-04T11:47:34;101516.81;;;11.73;36.49
59487;BME280;45298;54.918;73.504;2023-04-04T11:50:08;101450.03;;;11.39;37.52
59487;BME280;45298;54.918;73.504;2023-04-04T11:52:41;101498.53;;;11.65;38.06
59487;BME280;45298;54.918;73.504;2023-04-04T11:55:18;101513.69;;;11.63;38.51
59487;BME280;45298;54.918;73.504;2023-04-04T11:57:49;101501.84;;;11.49;38.21
59487;BME280;45298;54.918;73.504;2023-04-04T12:00:33;101537.63;;;11.63;39.09
59487;BME280;45298;54.918;73.504;2023-04-04T12:03:10;101411.34;;;10.91;38.25
59487;BME280;45298;54.918;73.504;2023-04-04T12:05:43;101517.13;;;11.44;37.06
59487;BME280;45298;54.918;73.504;2023-04-04T12:08:13;101530.22;;;11.49;36.70
59487;BME280;45298;54.918;73.504;2023-04-04T12:10:43;101519.97;;;11.40;35.88
59487;BME280;45298;54.918;73.504;2023-04-04T12:13:14;101511.38;;;11.33;37.38
59487;BME280;45298;54.918;73.504;2023-04-04T12:15:47;101545.47;;;11.44;37.16
59487;BME280;45298;54.918;73.504;2023-04-04T12:18:20;101527.31;;;11.33;37.17
59487;BME280;45298;54.918;73.504;2023-04-04T12:20:50;101519.91;;;11.19;37.99
59487;BME280;45298;54.918;73.504;2023-04-04T12:23:19;101467.50;;;10.80;38.49
59487;BME280;45298;54.918;73.504;2023-04-04T12:25:50;101463.31;;;10.74;37.59
59487;BME280;45298;54.918;73.504;2023-04-04T12:28:22;101517.28;;;10.97;37.91
59487;BME280;45298;54.918;73.504;2023-04-04T12:30:55;101531.47;;;10.96;37.90
59487;BME280;45298;54.918;73.504;2023-04-04T12:33:25;101515.38;;;10.78;36.92
59487;BME280;45298;54.918;73.504;2023-04-04T12:35:54;101548.56;;;10.88;38.24
59487;BME280;45298;54.918;73.504;2023-04-04T12:38:25;101527.91;;;10.75;38.83
59487;BME280;45298;54.918;73.504;2023-04-04T12:40:58;101516.19;;;10.56;37.92
59487;BME280;45298;54.918;73.504;2023-04-04T12:43:28;101532.91;;;10.58;37.94
59487;BME280;45298;54.918;73.504;2023-04-04T12:46:01;101522.69;;;10.49;38.45
59487;BME280;45298;54.918;73.504;2023-04-04T12:48:31;101479.63;;;10.17;39.25
59487;BME280;45298;54.918;73.504;2023-04-04T12:51:03;101516.16;;;10.33;39.64
59487;BME280;45298;54.918;73.504;2023-04-04T12:53:33;101521.13;;;10.18;40.40
59487;BME280;45298;54.918;73.504;2023-04-04T12:56:18;101517.25;;;10.03;39.65
59487;BME280;45298;54.918;73.504;2023-04-04T12:58:52;101518.41;;;9.96;39.71
59487;BME280;45298;54.918;73.504;2023-04-04T13:01:21;101536.78;;;10.01;40.38
59487;BME280;45298;54.918;73.504;2023-04-04T13:03:51;101463.38;;;9.52;40.48
59487;BME280;45298;54.918;73.504;2023-04-04T13:06:20;101505.94;;;9.73;40.64
59487;BME280;45298;54.918;73.504;2023-04-04T13:08:53;101517.69;;;9.65;40.44
59487;BME280;45298;54.918;73.504;2023-04-04T13:11:24;101536.13;;;9.68;40.53
59487;BME280;45298;54.918;73.504;2023-04-04T13:14:01;101521.06;;;9.44;40.47
59487;BME280;45298;54.918;73.504;2023-04-04T13:16:34;101538.78;;;9.42;40.38
59487;BME280;45298;54.918;73.504;2023-04-04T13:19:05;101450.78;;;8.80;40.83
59487;BME280;45298;54.918;73.504;2023-04-04T13:21:35;101531.72;;;9.15;41.30
59487;BME280;45298;54.918;73.504;2023-04-04T13:24:04;101525.94;;;9.02;41.22
59487;BME280;45298;54.918;73.504;2023-04-04T13:26:33;101474.34;;;8.59;41.29
59487;BME280;45298;54.918;73.504;2023-04-04T13:29:03;101488.47;;;8.59;41.91